< < Back
Terminal Aerodrome Forecast


Current Version              Previous Versions:   1  2  3  4  5  6  7  8  9  

Terminal Aerodrome Forecast

849
FTUS44 KOHX 221800 AAA
TAFCSV
TAF AMD
KCSV 221805Z 2218/2318 26005KT P6SM BKN007 OVC010
      TEMPO 2218/2220 3SM -SHRA BR BKN005 OVC007
     FM222000 34008KT 4SM BR BKN005
     FM230000 32009KT P6SM SCT005
     FM230600 01005KT 2SM BR SKC
     FM231500 01007KT P6SM SKC=

Latest METAR

274
SAUS70 KWBC 231100 RRC
MTRCSV
METAR KCSV 231053Z AUTO 02005KT 10SM CLR 07/M02 A2999 RMK AO2 SLP148
T00721022


USA.gov is the U.S. government's official web portal to all federal, state and local government web resources and services.